createdAt,value
2022-12-17T00:01:43.589Z,-1.00
2022-12-17T00:04:50.826Z,-1.00
2022-12-17T00:07:55.698Z,-1.10
2022-12-17T00:11:00.491Z,-1.00
2022-12-17T00:14:05.018Z,-1.00
2022-12-17T00:17:09.348Z,-1.00
2022-12-17T00:20:13.718Z,-1.00
2022-12-17T00:23:24.424Z,-0.90
2022-12-17T00:26:28.337Z,-0.90
2022-12-17T00:29:32.176Z,-0.90
2022-12-17T00:32:36.091Z,-0.80
2022-12-17T00:35:40.167Z,-0.80
2022-12-17T00:38:44.300Z,-0.70
2022-12-17T00:41:48.281Z,-0.70
2022-12-17T00:44:52.302Z,-0.80
2022-12-17T00:47:58.620Z,-0.70
2022-12-17T00:51:02.654Z,-0.70
2022-12-17T00:54:06.545Z,-0.80
2022-12-17T00:57:11.135Z,-0.70
2022-12-17T01:00:15.095Z,-0.70
2022-12-17T01:03:34.107Z,-0.70
2022-12-17T01:06:38.138Z,-0.60
2022-12-17T01:09:42.266Z,-0.50
2022-12-17T01:12:51.847Z,-0.60
2022-12-17T01:15:56.720Z,-0.70
2022-12-17T01:19:00.951Z,-0.70
2022-12-17T01:22:05.365Z,-0.70
2022-12-17T01:25:09.480Z,-0.60
2022-12-17T01:28:15.957Z,-0.70
2022-12-17T01:31:20.710Z,-0.70
2022-12-17T01:34:24.741Z,-0.60
2022-12-17T01:37:31.333Z,-0.70
2022-12-17T01:40:35.332Z,-0.70
2022-12-17T01:43:53.661Z,-0.60
2022-12-17T01:47:03.083Z,-0.70
2022-12-17T01:50:07.200Z,-0.70
2022-12-17T01:53:14.069Z,-0.70
2022-12-17T01:56:18.508Z,-0.60
2022-12-17T01:59:24.469Z,-0.70
2022-12-17T02:02:28.702Z,-0.80
2022-12-17T02:05:32.648Z,-0.70
2022-12-17T02:08:59.830Z,-0.80
2022-12-17T02:12:11.019Z,-0.90
2022-12-17T02:15:22.450Z,-0.90
2022-12-17T02:18:33.527Z,-0.80
2022-12-17T02:21:39.725Z,-0.80
2022-12-17T02:25:02.293Z,-0.80
2022-12-17T02:28:08.517Z,-0.80
2022-12-17T02:31:14.045Z,-0.70
2022-12-17T02:34:17.912Z,-0.70
2022-12-17T02:37:21.855Z,-0.80
2022-12-17T02:40:26.883Z,-0.80
2022-12-17T02:43:30.390Z,-0.90
2022-12-17T02:46:34.749Z,-0.90
2022-12-17T02:49:38.722Z,-0.80
2022-12-17T02:52:44.611Z,-0.80
2022-12-17T02:55:48.447Z,-0.80
2022-12-17T02:58:52.558Z,-0.90
2022-12-17T03:01:59.803Z,-0.90
2022-12-17T03:05:27.601Z,-0.90
2022-12-17T03:08:27.622Z,-0.80
2022-12-17T03:11:31.586Z,-1.00
2022-12-17T03:14:35.443Z,-1.00
2022-12-17T03:17:39.527Z,-0.90
2022-12-17T03:20:43.119Z,-1.00
2022-12-17T03:23:47.028Z,-0.90
2022-12-17T03:26:50.826Z,-0.90
2022-12-17T03:29:54.647Z,-0.90
2022-12-17T03:32:58.503Z,-1.00
2022-12-17T03:36:02.411Z,-1.00
2022-12-17T03:39:06.503Z,-1.10
2022-12-17T03:42:10.479Z,-1.10
2022-12-17T03:45:14.506Z,-1.00
2022-12-17T03:48:30.153Z,-1.10
2022-12-17T03:51:34.138Z,-1.10
2022-12-17T03:54:38.165Z,-1.10
2022-12-17T03:57:41.962Z,-1.00
2022-12-17T04:00:45.912Z,-1.00
2022-12-17T04:03:49.910Z,-1.00
2022-12-17T04:06:53.846Z,-1.00
2022-12-17T04:09:57.466Z,-1.10
2022-12-17T04:13:01.752Z,-1.10
2022-12-17T04:16:05.987Z,-1.10
2022-12-17T04:19:23.651Z,-1.20
2022-12-17T04:22:29.668Z,-1.20
2022-12-17T04:25:33.619Z,-1.10
2022-12-17T04:28:37.554Z,-1.00
2022-12-17T04:31:42.449Z,-1.10
2022-12-17T04:34:48.939Z,-1.20
2022-12-17T04:37:55.401Z,-1.30
2022-12-17T04:41:01.638Z,-1.10
2022-12-17T04:44:06.069Z,-1.10
2022-12-17T04:47:09.886Z,-1.10
2022-12-17T04:50:14.053Z,-1.30
2022-12-17T04:53:23.329Z,-1.20
2022-12-17T04:56:27.271Z,-1.10
2022-12-17T04:59:31.478Z,-1.10
2022-12-17T05:02:40.981Z,-1.00
2022-12-17T05:05:48.741Z,-1.00
2022-12-17T05:08:55.031Z,-1.10
2022-12-17T05:11:58.976Z,-1.10
2022-12-17T05:15:02.635Z,-1.00
2022-12-17T05:18:06.572Z,-1.00
2022-12-17T05:21:10.972Z,-1.10
2022-12-17T05:24:15.051Z,-1.10
2022-12-17T05:27:18.988Z,-1.00
2022-12-17T05:30:23.360Z,-1.10
2022-12-17T05:33:28.056Z,-1.10
2022-12-17T05:36:32.588Z,-1.00
2022-12-17T05:39:36.474Z,-1.10
2022-12-17T05:42:47.964Z,-1.10
2022-12-17T05:45:52.047Z,-1.00
2022-12-17T05:48:56.029Z,-1.00
2022-12-17T05:52:00.460Z,-1.20
2022-12-17T05:55:04.927Z,-1.30
2022-12-17T05:58:08.897Z,-1.20
2022-12-17T06:01:18.616Z,-1.10
2022-12-17T06:04:22.362Z,-1.10
2022-12-17T06:07:28.355Z,-1.30
2022-12-17T06:10:32.334Z,-1.30
2022-12-17T06:13:36.453Z,-1.30
2022-12-17T06:16:43.187Z,-1.20
2022-12-17T06:19:47.209Z,-1.20
2022-12-17T06:22:51.105Z,-1.20
2022-12-17T06:25:55.481Z,-1.20
2022-12-17T06:29:00.480Z,-1.30
2022-12-17T06:32:04.625Z,-1.40
2022-12-17T06:35:08.485Z,-1.30
2022-12-17T06:38:21.290Z,-1.40
2022-12-17T06:41:25.252Z,-1.30
2022-12-17T06:44:29.251Z,-1.40
2022-12-17T06:47:36.726Z,-1.30
2022-12-17T06:50:40.762Z,-1.40
2022-12-17T06:53:47.072Z,-1.30
2022-12-17T06:56:50.994Z,-1.30
2022-12-17T06:59:54.928Z,-1.30
2022-12-17T07:02:59.020Z,-1.30
2022-12-17T07:06:03.671Z,-1.30
2022-12-17T07:09:07.523Z,-1.30
2022-12-17T07:12:11.426Z,-1.20
2022-12-17T07:15:15.446Z,-1.10
2022-12-17T07:18:21.786Z,-1.20
2022-12-17T07:21:25.713Z,-1.30
2022-12-17T07:24:32.075Z,-1.30
2022-12-17T07:27:35.942Z,-1.30
2022-12-17T07:30:40.244Z,-1.30
2022-12-17T07:33:44.892Z,-1.20
2022-12-17T07:36:51.381Z,-1.20
2022-12-17T07:39:56.564Z,-1.10
2022-12-17T07:43:03.065Z,-1.00
2022-12-17T07:46:07.348Z,-1.00
2022-12-17T07:49:15.355Z,-1.10
2022-12-17T07:52:19.673Z,-0.90
2022-12-17T07:55:24.303Z,-0.90
2022-12-17T07:58:32.355Z,-0.80
2022-12-17T08:01:36.722Z,-0.60
2022-12-17T08:04:40.460Z,-0.70
2022-12-17T08:07:46.909Z,-0.70
2022-12-17T08:10:51.223Z,-0.60
2022-12-17T08:13:58.693Z,-0.60
2022-12-17T08:17:03.112Z,-0.80
2022-12-17T08:20:07.080Z,-0.70
2022-12-17T08:23:18.576Z,-0.50
2022-12-17T08:26:22.695Z,-0.70
2022-12-17T08:29:26.728Z,-0.70
2022-12-17T08:32:30.918Z,-0.80
2022-12-17T08:35:35.157Z,-0.60
2022-12-17T08:38:39.002Z,-0.60
2022-12-17T08:41:43.463Z,-0.90
2022-12-17T08:44:47.446Z,-1.00
2022-12-17T08:47:51.930Z,-0.60
2022-12-17T08:50:55.374Z,-0.40
2022-12-17T08:53:59.300Z,-0.20
2022-12-17T08:57:03.287Z,-0.10
2022-12-17T09:00:06.800Z,0.00
2022-12-17T09:03:16.535Z,-0.10
2022-12-17T09:06:20.983Z,-0.30
2022-12-17T09:09:25.389Z,0.00
2022-12-17T09:12:29.721Z,-0.10
2022-12-17T09:15:34.359Z,0.20
2022-12-17T09:18:39.730Z,0.30
2022-12-17T09:21:46.941Z,0.10
2022-12-17T09:24:53.810Z,0.00
2022-12-17T09:27:57.873Z,-0.20
2022-12-17T09:31:02.159Z,-0.30
2022-12-17T09:34:08.814Z,-0.10
2022-12-17T09:37:12.627Z,-0.20
2022-12-17T09:40:16.488Z,-0.30
2022-12-17T09:43:26.971Z,-0.40
2022-12-17T09:46:39.224Z,-0.40
2022-12-17T09:49:46.585Z,-0.50
2022-12-17T09:52:55.878Z,-0.60
2022-12-17T09:56:06.969Z,-0.40
2022-12-17T09:59:11.169Z,-0.40
2022-12-17T10:02:15.430Z,-0.20
2022-12-17T10:05:22.663Z,-0.10
2022-12-17T10:08:33.492Z,-0.20
2022-12-17T10:11:44.541Z,-0.40
2022-12-17T10:14:48.901Z,-0.20
2022-12-17T10:17:53.076Z,-0.30
2022-12-17T10:21:05.002Z,-0.40
2022-12-17T10:24:15.459Z,-0.10
2022-12-17T10:27:38.326Z,-0.10
2022-12-17T10:30:46.726Z,-0.30
2022-12-17T10:33:57.282Z,-0.90
2022-12-17T10:37:07.614Z,-0.70
2022-12-17T10:40:17.665Z,-0.40
2022-12-17T10:43:22.215Z,-0.20
2022-12-17T10:46:26.149Z,0.00
2022-12-17T10:49:39.407Z,-0.10
2022-12-17T10:52:50.008Z,-0.20
2022-12-17T10:55:55.021Z,-0.10
2022-12-17T10:59:17.625Z,-0.10
2022-12-17T11:02:21.907Z,0.10
2022-12-17T11:05:49.414Z,0.40
2022-12-17T11:08:54.108Z,0.30
2022-12-17T11:12:02.854Z,0.40
2022-12-17T11:15:16.122Z,0.50
2022-12-17T11:18:21.022Z,0.40
2022-12-17T11:21:38.717Z,0.20
2022-12-17T11:24:50.544Z,0.10
2022-12-17T11:28:01.996Z,0.30
2022-12-17T11:31:16.201Z,0.20
2022-12-17T11:34:48.711Z,0.00
2022-12-17T11:38:04.347Z,0.10
2022-12-17T11:41:17.203Z,0.20
2022-12-17T11:44:39.543Z,0.20
2022-12-17T11:48:01.659Z,0.30
2022-12-17T11:51:09.980Z,0.10
2022-12-17T11:54:31.698Z,0.10
2022-12-17T11:58:05.454Z,0.30
2022-12-17T12:01:37.582Z,0.30
2022-12-17T12:05:10.383Z,0.40
2022-12-17T12:08:35.527Z,0.20
2022-12-17T12:11:42.948Z,0.20
2022-12-17T12:15:25.854Z,0.00
2022-12-17T12:18:42.741Z,-0.30
2022-12-17T12:21:56.740Z,-0.30
2022-12-17T12:25:30.757Z,-0.40
2022-12-17T12:28:41.729Z,-0.40
2022-12-17T12:31:53.859Z,-0.50
2022-12-17T12:35:02.902Z,-0.50
2022-12-17T12:38:07.422Z,-0.50
2022-12-17T12:41:21.838Z,-0.60
2022-12-17T12:44:40.334Z,-0.60
2022-12-17T12:47:56.384Z,-0.50
2022-12-17T12:51:19.232Z,-0.40
2022-12-17T12:54:59.313Z,-0.40
2022-12-17T12:58:22.769Z,-0.50
2022-12-17T13:01:27.381Z,-0.10
2022-12-17T13:04:40.163Z,-0.10
2022-12-17T13:07:29.138Z,-0.30
2022-12-17T13:10:29.506Z,-0.30
2022-12-17T13:13:39.644Z,-0.30
2022-12-17T13:16:47.219Z,-0.20
2022-12-17T13:19:36.007Z,-0.40
2022-12-17T13:22:24.271Z,-0.40
2022-12-17T13:25:17.693Z,-0.30
2022-12-17T13:28:06.211Z,-0.50
2022-12-17T13:31:16.482Z,-0.60
2022-12-17T13:34:36.604Z,-0.60
2022-12-17T13:37:31.011Z,-0.40
2022-12-17T13:40:35.687Z,-0.30
2022-12-17T13:43:31.907Z,-0.20
2022-12-17T13:46:26.721Z,-0.20
2022-12-17T13:49:20.079Z,-0.20
2022-12-17T13:52:16.186Z,-0.30
2022-12-17T13:55:11.298Z,-0.40
2022-12-17T13:57:57.927Z,-0.70
2022-12-17T14:00:43.292Z,-0.80
2022-12-17T14:03:49.915Z,-1.10
2022-12-17T14:06:41.345Z,-1.20
2022-12-17T14:09:37.365Z,-1.30
2022-12-17T14:12:27.189Z,-1.00
2022-12-17T14:15:33.329Z,-1.00
2022-12-17T14:18:21.095Z,-1.10
2022-12-17T14:21:08.556Z,-0.80
2022-12-17T14:23:55.375Z,-0.80
2022-12-17T14:26:51.729Z,-0.70
2022-12-17T14:29:46.686Z,-0.70
2022-12-17T14:32:36.346Z,-0.80
2022-12-17T14:35:26.934Z,-1.00
2022-12-17T14:38:48.346Z,-1.00
2022-12-17T14:41:48.000Z,-0.90
2022-12-17T14:44:33.910Z,-0.90
2022-12-17T14:47:34.508Z,-0.90
2022-12-17T14:50:20.358Z,-0.90
2022-12-17T14:53:26.432Z,-0.90
2022-12-17T14:56:22.908Z,-0.80
2022-12-17T14:59:34.643Z,-1.00
2022-12-17T15:02:24.141Z,-1.00
2022-12-17T15:05:15.240Z,-1.00
2022-12-17T15:08:01.196Z,-0.90
2022-12-17T15:10:46.859Z,-0.90
2022-12-17T15:13:32.445Z,-0.90
2022-12-17T15:16:17.780Z,-0.90
2022-12-17T15:19:06.305Z,-1.00
2022-12-17T15:21:51.737Z,-1.00
2022-12-17T15:24:37.087Z,-1.10
2022-12-17T15:27:22.967Z,-1.20
2022-12-17T15:30:13.590Z,-1.20
2022-12-17T15:33:02.421Z,-1.30
2022-12-17T15:35:47.818Z,-1.30
2022-12-17T15:38:33.687Z,-1.20
2022-12-17T15:41:39.902Z,-1.30
2022-12-17T15:44:25.497Z,-1.30
2022-12-17T15:47:11.105Z,-1.30
2022-12-17T15:49:58.800Z,-1.50
2022-12-17T15:52:46.946Z,-1.50
2022-12-17T15:55:32.446Z,-1.60
2022-12-17T15:58:19.241Z,-1.50
2022-12-17T16:01:06.751Z,-1.60
2022-12-17T16:03:52.686Z,-1.60
2022-12-17T16:06:38.217Z,-1.40
2022-12-17T16:09:25.992Z,-1.50
2022-12-17T16:12:11.581Z,-1.40
2022-12-17T16:14:57.056Z,-1.60
2022-12-17T16:17:42.542Z,-1.50
2022-12-17T16:20:28.375Z,-1.40
2022-12-17T16:23:13.693Z,-1.40
2022-12-17T16:26:01.670Z,-1.40
2022-12-17T16:28:47.026Z,-1.30
2022-12-17T16:31:35.038Z,-1.30
2022-12-17T16:34:25.362Z,-1.30
2022-12-17T16:37:13.062Z,-1.20
2022-12-17T16:40:00.988Z,-1.20
2022-12-17T16:42:49.281Z,-1.30
2022-12-17T16:45:34.871Z,-1.40
2022-12-17T16:48:21.968Z,-1.40
2022-12-17T16:51:25.848Z,-1.40
2022-12-17T16:54:18.517Z,-1.40
2022-12-17T16:57:05.847Z,-1.40
2022-12-17T16:59:51.147Z,-1.40
2022-12-17T17:02:36.892Z,-1.40
2022-12-17T17:05:22.324Z,-1.50
2022-12-17T17:08:07.728Z,-1.40
2022-12-17T17:10:53.192Z,-1.40
2022-12-17T17:13:42.000Z,-1.40
2022-12-17T17:16:34.196Z,-1.40
2022-12-17T17:19:20.631Z,-1.30
2022-12-17T17:22:10.217Z,-1.30
2022-12-17T17:24:55.869Z,-1.40
2022-12-17T17:27:47.840Z,-1.40
2022-12-17T17:30:35.289Z,-1.50
2022-12-17T17:33:20.531Z,-1.50
2022-12-17T17:36:08.533Z,-1.60
2022-12-17T17:38:59.943Z,-1.70
2022-12-17T17:41:48.026Z,-1.70
2022-12-17T17:44:34.228Z,-1.70
2022-12-17T17:47:19.704Z,-1.60
2022-12-17T17:50:05.648Z,-1.80
2022-12-17T17:52:50.920Z,-1.80
2022-12-17T17:55:36.474Z,-1.80
2022-12-17T17:58:24.064Z,-1.90
2022-12-17T18:01:12.361Z,-1.90
2022-12-17T18:04:00.669Z,-1.80
2022-12-17T18:07:16.066Z,-1.70
2022-12-17T18:09:53.278Z,-1.70
2022-12-17T18:12:57.275Z,-1.80
2022-12-17T18:15:45.103Z,-1.70
2022-12-17T18:18:30.622Z,-1.80
2022-12-17T18:21:19.935Z,-1.80
2022-12-17T18:24:17.426Z,-1.90
2022-12-17T18:27:02.709Z,-1.80
2022-12-17T18:29:51.107Z,-1.80
2022-12-17T18:32:39.027Z,-1.80
2022-12-17T18:35:27.478Z,-1.90
2022-12-17T18:38:15.048Z,-1.80
2022-12-17T18:41:29.214Z,-1.80
2022-12-17T18:44:15.742Z,-2.00
2022-12-17T18:47:01.737Z,-1.90
2022-12-17T18:49:47.437Z,-2.00
2022-12-17T18:52:32.947Z,-2.00
2022-12-17T18:55:20.906Z,-2.10
2022-12-17T18:58:08.201Z,-2.20
2022-12-17T19:00:53.635Z,-2.20
2022-12-17T19:03:41.386Z,-2.10
2022-12-17T19:06:27.376Z,-2.20
2022-12-17T19:09:23.067Z,-2.30
2022-12-17T19:12:09.873Z,-2.20
2022-12-17T19:14:57.630Z,-2.10
2022-12-17T19:17:43.028Z,-2.00
2022-12-17T19:20:28.311Z,-2.30
2022-12-17T19:23:16.219Z,-2.30
2022-12-17T19:26:17.392Z,-2.20
2022-12-17T19:29:08.200Z,-2.10
2022-12-17T19:31:53.573Z,-2.30
2022-12-17T19:34:39.642Z,-2.40
2022-12-17T19:37:25.820Z,-2.40
2022-12-17T19:40:13.574Z,-2.70
2022-12-17T19:42:59.391Z,-2.60
2022-12-17T19:45:51.186Z,-2.60
2022-12-17T19:48:46.492Z,-2.70
2022-12-17T19:51:34.298Z,-2.80
2022-12-17T19:54:19.692Z,-2.70
2022-12-17T19:57:07.724Z,-2.70
2022-12-17T19:59:53.050Z,-2.60
2022-12-17T20:02:40.688Z,-2.70
2022-12-17T20:05:26.714Z,-2.70
2022-12-17T20:08:13.685Z,-2.70
2022-12-17T20:11:03.301Z,-2.70
2022-12-17T20:13:54.469Z,-2.80
2022-12-17T20:16:48.212Z,-2.80
2022-12-17T20:19:37.350Z,-2.70
2022-12-17T20:22:22.810Z,-2.70
2022-12-17T20:25:11.291Z,-2.70
2022-12-17T20:27:56.513Z,-2.70
2022-12-17T20:30:42.277Z,-2.70
2022-12-17T20:33:28.022Z,-2.90
2022-12-17T20:36:18.292Z,-2.90
2022-12-17T20:39:07.556Z,-2.90
2022-12-17T20:41:55.767Z,-2.90
2022-12-17T20:44:41.714Z,-3.00
2022-12-17T20:47:29.471Z,-2.90
2022-12-17T20:50:14.858Z,-2.80
2022-12-17T20:53:00.204Z,-2.90
2022-12-17T20:55:46.746Z,-3.00
2022-12-17T20:58:32.812Z,-3.00
2022-12-17T21:01:21.248Z,-2.90
2022-12-17T21:04:07.607Z,-2.80
2022-12-17T21:06:54.474Z,-2.70
2022-12-17T21:09:43.373Z,-2.60
2022-12-17T21:12:48.982Z,-2.70
2022-12-17T21:15:36.425Z,-2.80
2022-12-17T21:18:21.940Z,-2.80
2022-12-17T21:21:12.081Z,-2.70
2022-12-17T21:23:58.696Z,-2.70
2022-12-17T21:26:45.200Z,-2.70
2022-12-17T21:29:35.381Z,-2.80
2022-12-17T21:32:26.536Z,-2.70
2022-12-17T21:35:17.929Z,-2.70
2022-12-17T21:38:03.603Z,-2.80
2022-12-17T21:40:51.177Z,-2.80
2022-12-17T21:43:37.598Z,-2.90
2022-12-17T21:46:27.327Z,-2.80
2022-12-17T21:49:13.329Z,-2.70
2022-12-17T21:52:01.921Z,-2.70
2022-12-17T21:54:47.399Z,-2.70
2022-12-17T21:57:32.655Z,-2.90
2022-12-17T22:00:25.715Z,-2.90
2022-12-17T22:03:10.979Z,-3.10
2022-12-17T22:05:56.543Z,-3.20
2022-12-17T22:08:42.983Z,-3.00
2022-12-17T22:11:29.147Z,-3.10
2022-12-17T22:14:20.630Z,-3.10
2022-12-17T22:17:06.710Z,-3.00
2022-12-17T22:19:59.870Z,-3.20
2022-12-17T22:22:45.507Z,-3.20
2022-12-17T22:25:31.067Z,-3.20
2022-12-17T22:28:16.851Z,-3.30
2022-12-17T22:31:26.638Z,-3.50
2022-12-17T22:34:37.102Z,-3.50
2022-12-17T22:40:34.804Z,-3.50
2022-12-17T22:44:35.921Z,-3.50
2022-12-17T22:44:52.218Z,-3.50
2022-12-17T22:46:41.480Z,-3.50
2022-12-17T22:49:29.619Z,-3.40
2022-12-17T22:52:17.517Z,-3.30
2022-12-17T22:55:05.095Z,-3.30
2022-12-17T22:57:50.811Z,-3.30
2022-12-17T23:00:39.026Z,-3.30
2022-12-17T23:03:24.336Z,-3.30
2022-12-17T23:06:22.804Z,-3.30
2022-12-17T23:09:08.302Z,-3.30
2022-12-17T23:11:53.666Z,-3.30
2022-12-17T23:14:38.812Z,-3.30
2022-12-17T23:17:24.422Z,-3.30
2022-12-17T23:20:12.386Z,-3.30
2022-12-17T23:23:00.151Z,-3.40
2022-12-17T23:25:51.020Z,-3.60
2022-12-17T23:28:40.036Z,-3.60
2022-12-17T23:31:31.688Z,-3.60
2022-12-17T23:34:17.149Z,-3.60
2022-12-17T23:37:02.391Z,-3.60
2022-12-17T23:39:47.934Z,-3.50
2022-12-17T23:42:33.567Z,-3.60
2022-12-17T23:45:19.081Z,-3.60
2022-12-17T23:48:05.220Z,-3.60
2022-12-17T23:50:50.597Z,-3.70
2022-12-17T23:53:41.774Z,-3.60
2022-12-17T23:56:28.455Z,-3.50
2022-12-17T23:59:14.443Z,-3.70
